createdAt,value
2022-10-05T00:00:19.128Z,11.25
2022-10-05T00:02:46.755Z,14.75
2022-10-05T00:05:34.292Z,11.65
2022-10-05T00:08:22.854Z,14.75
2022-10-05T00:10:50.181Z,12.73
2022-10-05T00:13:20.944Z,10.93
2022-10-05T00:15:49.346Z,10.40
2022-10-05T00:18:18.342Z,11.68
2022-10-05T00:20:46.736Z,13.77
2022-10-05T00:23:20.949Z,9.45
2022-10-05T00:25:47.875Z,13.18
2022-10-05T00:28:29.209Z,9.52
2022-10-05T00:30:57.425Z,8.43
2022-10-05T00:33:24.348Z,9.85
2022-10-05T00:35:51.357Z,12.98
2022-10-05T00:38:17.898Z,12.45
2022-10-05T00:40:56.200Z,10.73
2022-10-05T00:43:34.973Z,14.23
2022-10-05T00:46:20.325Z,10.02
2022-10-05T00:49:15.570Z,10.00
2022-10-05T00:51:52.185Z,12.60
2022-10-05T00:54:27.755Z,11.75
2022-10-05T01:01:12.973Z,11.00
2022-10-05T01:04:01.398Z,11.48
2022-10-05T01:07:13.198Z,9.25
2022-10-05T01:13:47.935Z,10.18
2022-10-05T01:16:28.987Z,10.05
2022-10-05T01:19:11.543Z,8.93
2022-10-05T01:21:52.776Z,9.37
2022-10-05T01:24:48.820Z,9.50
2022-10-05T01:27:33.869Z,9.77
2022-10-05T01:30:12.269Z,9.20
2022-10-05T01:32:45.643Z,8.82
2022-10-05T01:35:41.320Z,8.77
2022-10-05T01:38:32.420Z,10.13
2022-10-05T01:41:11.908Z,10.05
2022-10-05T01:43:48.237Z,10.80
2022-10-05T01:46:28.563Z,9.52
2022-10-05T01:48:55.981Z,9.50
2022-10-05T01:51:31.960Z,11.68
2022-10-05T01:54:16.605Z,11.60
2022-10-05T01:56:46.625Z,9.95
2022-10-05T01:59:36.561Z,9.63
2022-10-05T02:02:08.736Z,8.98
2022-10-05T02:05:01.418Z,11.32
2022-10-05T02:07:54.886Z,9.02
2022-10-05T02:10:31.004Z,11.80
2022-10-05T02:13:03.342Z,8.32
2022-10-05T02:15:44.044Z,11.13
2022-10-05T02:18:21.845Z,8.25
2022-10-05T02:20:49.925Z,9.27
2022-10-05T02:23:28.377Z,10.70
2022-10-05T02:25:56.569Z,9.98
2022-10-05T02:28:31.443Z,10.38
2022-10-05T02:31:08.887Z,9.60
2022-10-05T02:33:36.033Z,10.75
2022-10-05T02:36:35.622Z,7.85
2022-10-05T02:41:51.285Z,12.90
2022-10-05T02:44:40.953Z,8.45
2022-10-05T02:47:17.699Z,8.38
2022-10-05T02:49:44.219Z,9.73
2022-10-05T02:52:25.991Z,12.02
2022-10-05T02:55:49.487Z,9.93
2022-10-05T02:58:24.869Z,12.52
2022-10-05T03:01:03.236Z,8.98
2022-10-05T03:03:39.360Z,9.52
2022-10-05T03:06:20.639Z,9.70
2022-10-05T03:08:57.617Z,13.38
2022-10-05T03:12:00.924Z,11.88
2022-10-05T03:14:57.142Z,10.27
2022-10-05T03:17:34.875Z,10.60
2022-10-05T03:20:12.409Z,9.68
2022-10-05T03:22:49.982Z,13.05
2022-10-05T03:25:21.393Z,10.38
2022-10-05T03:27:54.093Z,8.85
2022-10-05T03:30:23.805Z,11.35
2022-10-05T03:33:26.003Z,11.85
2022-10-05T03:36:11.856Z,10.20
2022-10-05T03:39:00.502Z,8.93
2022-10-05T03:41:42.878Z,9.88
2022-10-05T03:44:27.861Z,12.90
2022-10-05T03:47:16.781Z,12.63
2022-10-05T03:49:56.941Z,9.30
2022-10-05T03:52:31.547Z,11.75
2022-10-05T03:55:05.531Z,9.93
2022-10-05T03:57:38.747Z,10.93
2022-10-05T04:00:13.549Z,12.60
2022-10-05T04:03:07.817Z,9.40
2022-10-05T04:05:47.036Z,12.63
2022-10-05T04:08:47.896Z,15.50
2022-10-05T04:11:44.532Z,9.80
2022-10-05T04:14:20.577Z,9.90
2022-10-05T04:16:52.059Z,13.63
2022-10-05T04:19:32.605Z,10.90
2022-10-05T04:22:03.681Z,9.93
2022-10-05T04:24:58.875Z,11.63
2022-10-05T04:27:39.156Z,13.18
2022-10-05T04:30:12.593Z,10.70
2022-10-05T04:32:55.605Z,14.30
2022-10-05T04:36:11.117Z,12.02
2022-10-05T04:39:06.031Z,12.13
2022-10-05T04:41:55.735Z,11.82
2022-10-05T04:44:35.868Z,12.15
2022-10-05T04:47:21.260Z,12.75
2022-10-05T04:50:26.371Z,11.60
2022-10-05T04:53:54.357Z,10.90
2022-10-05T04:56:41.428Z,13.00
2022-10-05T04:59:46.026Z,11.57
2022-10-05T05:02:39.551Z,20.23
2022-10-05T05:05:27.193Z,13.18
2022-10-05T05:08:16.635Z,12.23
2022-10-05T05:10:49.253Z,11.93
2022-10-05T05:13:34.246Z,11.70
2022-10-05T05:16:20.108Z,16.42
2022-10-05T05:19:07.098Z,11.35
2022-10-05T05:21:52.937Z,9.65
2022-10-05T05:24:41.134Z,11.15
2022-10-05T05:27:34.685Z,11.40
2022-10-05T05:30:15.030Z,13.02
2022-10-05T05:33:06.457Z,11.20
2022-10-05T05:35:44.850Z,12.82
2022-10-05T05:38:30.873Z,11.63
2022-10-05T05:41:17.045Z,13.77
2022-10-05T05:44:14.410Z,12.38
2022-10-05T05:47:03.589Z,12.40
2022-10-05T05:49:46.300Z,13.80
2022-10-05T05:52:22.183Z,10.63
2022-10-05T05:54:58.262Z,11.10
2022-10-05T05:57:34.233Z,11.43
2022-10-05T06:00:20.131Z,11.25
2022-10-05T06:03:18.977Z,13.80
2022-10-05T06:05:54.788Z,12.75
2022-10-05T06:08:49.537Z,13.43
2022-10-05T06:11:55.763Z,11.73
2022-10-05T06:15:02.537Z,13.27
2022-10-05T06:17:50.287Z,15.05
2022-10-05T06:20:28.824Z,10.10
2022-10-05T06:23:00.442Z,11.15
2022-10-05T06:25:35.106Z,11.23
2022-10-05T06:28:13.012Z,10.07
2022-10-05T06:31:10.261Z,11.55
2022-10-05T06:33:45.660Z,12.20
2022-10-05T06:39:37.765Z,11.40
2022-10-05T06:42:34.210Z,13.00
2022-10-05T06:45:53.184Z,11.00
2022-10-05T06:48:55.799Z,12.43
2022-10-05T06:51:37.926Z,12.88
2022-10-05T06:54:25.786Z,11.98
2022-10-05T06:57:19.394Z,9.68
2022-10-05T07:00:01.590Z,11.73
2022-10-05T07:02:53.641Z,12.70
2022-10-05T07:05:34.598Z,9.32
2022-10-05T07:08:07.287Z,11.00
2022-10-05T07:11:11.536Z,14.65
2022-10-05T07:13:48.540Z,14.15
2022-10-05T07:16:32.675Z,11.35
2022-10-05T07:19:29.251Z,10.70
2022-10-05T07:22:34.570Z,15.07
2022-10-05T07:25:19.010Z,13.82
2022-10-05T07:28:06.855Z,10.05
2022-10-05T07:30:58.844Z,11.70
2022-10-05T07:33:38.828Z,8.40
2022-10-05T07:36:54.643Z,12.68
2022-10-05T07:39:58.412Z,12.93
2022-10-05T07:42:48.765Z,12.15
2022-10-05T07:45:45.955Z,11.20
2022-10-05T07:49:03.326Z,11.82
2022-10-05T07:51:38.993Z,11.85
2022-10-05T07:54:27.404Z,14.43
2022-10-05T07:57:13.269Z,15.88
2022-10-05T07:59:55.441Z,12.18
2022-10-05T08:02:48.048Z,10.43
2022-10-05T08:05:20.077Z,12.75
2022-10-05T08:07:52.205Z,11.13
2022-10-05T08:10:30.103Z,11.57
2022-10-05T08:13:30.952Z,13.02
2022-10-05T08:16:03.135Z,11.98
2022-10-05T08:19:07.176Z,10.38
2022-10-05T08:21:42.279Z,10.85
2022-10-05T08:24:35.391Z,12.27
2022-10-05T08:27:23.476Z,14.35
2022-10-05T08:30:02.974Z,11.55
2022-10-05T08:32:37.949Z,12.80
2022-10-05T08:35:25.606Z,10.95
2022-10-05T08:37:52.997Z,10.48
2022-10-05T08:40:21.453Z,11.57
2022-10-05T08:43:06.447Z,12.25
2022-10-05T08:45:38.799Z,12.25
2022-10-05T08:48:38.682Z,10.75
2022-10-05T08:51:22.745Z,12.20
2022-10-05T08:54:23.299Z,12.43
2022-10-05T08:57:06.462Z,12.38
2022-10-05T08:59:53.429Z,10.30
2022-10-05T09:02:42.957Z,10.40
2022-10-05T09:05:45.959Z,11.98
2022-10-05T09:08:47.937Z,11.30
2022-10-05T09:11:37.242Z,10.90
2022-10-05T09:14:18.824Z,11.98
2022-10-05T09:17:23.134Z,13.60
2022-10-05T09:19:59.763Z,12.53
2022-10-05T09:22:37.906Z,11.25
2022-10-05T09:25:51.821Z,13.93
2022-10-05T09:28:31.666Z,12.07
2022-10-05T09:31:06.954Z,10.10
2022-10-05T09:33:48.914Z,11.55
2022-10-05T09:36:36.739Z,12.18
2022-10-05T09:39:35.620Z,9.82
2022-10-05T09:42:29.995Z,13.40
2022-10-05T09:45:24.397Z,14.38
2022-10-05T09:48:15.928Z,14.15
2022-10-05T09:51:15.121Z,10.02
2022-10-05T09:54:06.426Z,9.85
2022-10-05T09:56:56.170Z,12.45
2022-10-05T10:00:00.638Z,12.95
2022-10-05T10:02:52.337Z,11.00
2022-10-05T10:05:36.387Z,11.32
2022-10-05T10:08:32.194Z,14.68
2022-10-05T10:11:07.477Z,11.77
2022-10-05T10:13:55.801Z,15.57
2022-10-05T10:16:40.918Z,13.05
2022-10-05T10:19:16.470Z,12.38
2022-10-05T10:22:17.159Z,16.52
2022-10-05T10:25:24.899Z,12.52
2022-10-05T10:28:32.110Z,14.27
2022-10-05T10:31:25.159Z,13.48
2022-10-05T10:34:09.152Z,14.02
2022-10-05T10:37:17.545Z,11.18
2022-10-05T10:40:23.341Z,13.52
2022-10-05T10:43:09.837Z,12.40
2022-10-05T10:46:07.504Z,10.65
2022-10-05T10:49:06.627Z,11.32
2022-10-05T10:52:05.574Z,10.48
2022-10-05T10:55:01.370Z,10.35
2022-10-05T10:57:49.412Z,10.60
2022-10-05T11:00:46.908Z,11.35
2022-10-05T11:03:33.471Z,8.25
2022-10-05T11:06:25.593Z,10.95
2022-10-05T11:09:10.910Z,8.60
2022-10-05T11:12:19.524Z,9.57
2022-10-05T11:15:08.414Z,9.52
2022-10-05T11:18:12.777Z,7.93
2022-10-05T11:21:02.723Z,7.68
2022-10-05T11:23:29.197Z,8.73
2022-10-05T11:26:17.674Z,9.43
2022-10-05T11:29:32.536Z,7.18
2022-10-05T11:32:20.468Z,9.13
2022-10-05T11:35:15.143Z,9.23
2022-10-05T11:37:59.752Z,8.55
2022-10-05T11:43:18.771Z,6.65
2022-10-05T11:45:45.184Z,9.63
2022-10-05T11:48:20.247Z,6.97
2022-10-05T11:51:08.598Z,8.65
2022-10-05T11:54:18.282Z,10.50
2022-10-05T11:56:54.509Z,9.93
2022-10-05T11:59:26.711Z,8.55
2022-10-05T12:01:53.150Z,7.05
2022-10-05T12:04:41.003Z,9.10
2022-10-05T12:07:39.190Z,7.78
2022-10-05T12:10:33.274Z,7.25
2022-10-05T12:13:19.311Z,7.57
2022-10-05T12:15:53.566Z,8.02
2022-10-05T12:18:29.992Z,8.23
2022-10-05T12:21:06.140Z,9.68
2022-10-05T12:23:41.830Z,8.68
2022-10-05T12:26:14.852Z,10.23
2022-10-05T12:28:47.296Z,9.15
2022-10-05T12:31:40.254Z,8.05
2022-10-05T12:34:22.768Z,6.85
2022-10-05T12:37:05.175Z,8.20
2022-10-05T12:39:56.621Z,7.20
2022-10-05T12:42:41.486Z,9.60
2022-10-05T12:45:20.531Z,7.65
2022-10-05T12:47:54.026Z,9.48
2022-10-05T12:50:30.632Z,7.55
2022-10-05T12:53:31.247Z,7.40
2022-10-05T12:56:15.334Z,7.53
2022-10-05T12:58:51.853Z,7.65
2022-10-05T13:01:39.951Z,7.20
2022-10-05T13:04:38.405Z,9.90
2022-10-05T13:07:28.503Z,7.78
2022-10-05T13:10:44.020Z,10.63
2022-10-05T13:16:04.798Z,10.30
2022-10-05T13:18:31.395Z,10.43
2022-10-05T13:21:06.904Z,10.48
2022-10-05T13:23:45.080Z,10.00
2022-10-05T13:26:25.815Z,8.32
2022-10-05T13:29:03.351Z,8.70
2022-10-05T13:31:43.536Z,7.28
2022-10-05T13:34:22.467Z,8.63
2022-10-05T13:37:03.457Z,7.50
2022-10-05T13:39:53.103Z,8.25
2022-10-05T13:42:35.677Z,9.32
2022-10-05T13:45:18.816Z,6.22
2022-10-05T13:48:17.046Z,7.85
2022-10-05T13:51:09.797Z,7.97
2022-10-05T13:53:49.896Z,7.72
2022-10-05T13:56:31.102Z,5.45
2022-10-05T13:59:23.055Z,7.38
2022-10-05T14:02:00.737Z,7.40
2022-10-05T14:04:30.325Z,6.47
2022-10-05T14:07:14.017Z,7.45
2022-10-05T14:09:48.146Z,8.00
2022-10-05T14:12:20.449Z,5.30
2022-10-05T14:14:55.357Z,4.93
2022-10-05T14:17:33.984Z,5.95
2022-10-05T14:20:03.345Z,5.85
2022-10-05T14:22:30.044Z,6.60
2022-10-05T14:25:02.387Z,7.40
2022-10-05T14:27:33.705Z,9.60
2022-10-05T14:30:12.118Z,6.88
2022-10-05T14:33:06.713Z,6.63
2022-10-05T14:35:52.105Z,7.57
2022-10-05T14:38:29.328Z,6.07
2022-10-05T14:41:15.962Z,7.30
2022-10-05T14:44:03.989Z,7.82
2022-10-05T14:46:32.791Z,6.60
2022-10-05T14:49:29.109Z,5.93
2022-10-05T14:51:56.606Z,5.47
2022-10-05T14:54:35.142Z,6.13
2022-10-05T14:57:12.522Z,7.65
2022-10-05T14:59:45.930Z,5.20
2022-10-05T15:02:37.299Z,4.65
2022-10-05T15:05:15.217Z,6.15
2022-10-05T15:07:45.235Z,4.28
2022-10-05T15:10:40.538Z,10.25
2022-10-05T15:13:14.256Z,9.45
2022-10-05T15:15:53.899Z,7.93
2022-10-05T15:18:27.245Z,7.15
2022-10-05T15:21:23.815Z,6.95
2022-10-05T15:23:57.445Z,9.57
2022-10-05T15:26:53.002Z,7.68
2022-10-05T15:29:55.561Z,6.00
2022-10-05T15:32:44.022Z,6.50
2022-10-05T15:35:29.461Z,7.40
2022-10-05T15:38:13.228Z,6.50
2022-10-05T15:40:43.272Z,6.97
2022-10-05T15:43:17.526Z,4.93
2022-10-05T15:48:49.238Z,5.40
2022-10-05T15:51:40.705Z,7.18
2022-10-05T15:54:41.704Z,6.88
2022-10-05T15:57:33.641Z,5.40
2022-10-05T16:00:07.714Z,5.25
2022-10-05T16:05:40.236Z,6.75
2022-10-05T16:08:34.918Z,5.53
2022-10-05T16:11:04.728Z,7.68
2022-10-05T16:13:50.357Z,5.78
2022-10-05T16:16:28.785Z,7.13
2022-10-05T16:19:14.438Z,5.72
2022-10-05T16:21:54.030Z,5.05
2022-10-05T16:24:49.241Z,5.72
2022-10-05T16:27:41.556Z,5.78
2022-10-05T16:30:16.620Z,5.28
2022-10-05T16:33:02.325Z,8.73
2022-10-05T16:35:38.917Z,6.32
2022-10-05T16:38:26.828Z,8.25
2022-10-05T16:41:28.819Z,7.60
2022-10-05T16:44:09.989Z,9.20
2022-10-05T16:46:42.822Z,6.60
2022-10-05T16:49:29.028Z,9.35
2022-10-05T16:51:57.851Z,9.07
2022-10-05T16:54:24.382Z,10.05
2022-10-05T16:57:12.072Z,8.88
2022-10-05T16:59:47.560Z,10.48
2022-10-05T17:02:46.563Z,8.73
2022-10-05T17:05:16.208Z,7.07
2022-10-05T17:08:01.312Z,6.93
2022-10-05T17:10:41.886Z,7.05
2022-10-05T17:13:13.516Z,6.72
2022-10-05T17:16:17.891Z,6.80
2022-10-05T17:19:09.233Z,5.68
2022-10-05T17:22:03.482Z,5.30
2022-10-05T17:25:09.307Z,14.95
2022-10-05T17:27:55.557Z,11.73
2022-10-05T17:30:58.690Z,8.88
2022-10-05T17:33:28.967Z,10.23
2022-10-05T17:36:12.376Z,10.73
2022-10-05T17:38:46.920Z,10.70
2022-10-05T17:41:30.109Z,11.48
2022-10-05T17:44:20.971Z,12.75
2022-10-05T17:46:59.117Z,15.13
2022-10-05T17:49:38.198Z,14.65
2022-10-05T17:52:41.026Z,15.20
2022-10-05T17:55:38.327Z,10.13
2022-10-05T17:58:23.766Z,9.32
2022-10-05T18:01:00.595Z,9.73
2022-10-05T18:03:42.846Z,9.07
2022-10-05T18:06:29.431Z,7.25
2022-10-05T18:09:22.526Z,7.20
2022-10-05T18:12:11.009Z,6.78
2022-10-05T18:15:01.162Z,7.55
2022-10-05T18:17:47.111Z,6.15
2022-10-05T18:20:34.916Z,6.78
2022-10-05T18:23:07.398Z,6.43
2022-10-05T18:25:40.184Z,6.70
2022-10-05T18:28:29.071Z,7.18
2022-10-05T18:31:04.285Z,6.60
2022-10-05T18:33:37.897Z,7.03
2022-10-05T18:36:33.105Z,6.50
2022-10-05T18:39:40.912Z,7.75
2022-10-05T18:42:33.323Z,6.32
2022-10-05T18:45:22.542Z,6.53
2022-10-05T18:48:11.550Z,6.07
2022-10-05T18:50:51.398Z,7.68
2022-10-05T18:53:44.889Z,7.07
2022-10-05T18:56:48.271Z,8.23
2022-10-05T18:59:40.527Z,7.05
2022-10-05T19:02:20.140Z,6.20
2022-10-05T19:05:35.820Z,8.07
2022-10-05T19:08:25.109Z,6.22
2022-10-05T19:11:01.604Z,6.68
2022-10-05T19:13:34.898Z,5.20
2022-10-05T19:16:34.999Z,6.30
2022-10-05T19:19:16.609Z,6.85
2022-10-05T19:22:04.892Z,8.50
2022-10-05T19:24:37.532Z,7.43
2022-10-05T19:27:22.875Z,8.70
2022-10-05T19:30:13.758Z,5.53
2022-10-05T19:32:56.153Z,8.52
2022-10-05T19:36:02.074Z,7.35
2022-10-05T19:38:34.401Z,7.10
2022-10-05T19:41:22.524Z,8.30
2022-10-05T19:44:07.473Z,7.57
2022-10-05T19:47:10.690Z,7.07
2022-10-05T19:49:47.732Z,5.55
2022-10-05T19:52:50.255Z,7.95
2022-10-05T19:55:26.333Z,5.90
2022-10-05T19:57:55.216Z,9.32
2022-10-05T20:00:33.883Z,6.05
2022-10-05T20:03:18.886Z,7.60
2022-10-05T20:05:45.745Z,10.23
2022-10-05T20:08:17.429Z,7.10
2022-10-05T20:10:44.868Z,5.65
2022-10-05T20:13:20.598Z,7.78
2022-10-05T20:16:45.064Z,6.30
2022-10-05T20:19:53.424Z,7.38
2022-10-05T20:22:22.854Z,6.25
2022-10-05T20:24:53.683Z,6.15
2022-10-05T20:27:42.247Z,6.20
2022-10-05T20:30:11.972Z,6.50
2022-10-05T20:32:38.663Z,6.95
2022-10-05T20:35:06.896Z,7.57
2022-10-05T20:37:33.855Z,6.85
2022-10-05T20:40:00.389Z,5.50
2022-10-05T20:42:26.949Z,5.90
2022-10-05T20:44:56.814Z,7.80
2022-10-05T20:47:24.807Z,5.15
2022-10-05T20:49:53.329Z,7.47
2022-10-05T20:52:20.915Z,6.05
2022-10-05T20:54:47.976Z,5.22
2022-10-05T20:57:14.585Z,5.78
2022-10-05T20:59:41.140Z,6.60
2022-10-05T21:02:07.691Z,5.60
2022-10-05T21:04:41.424Z,9.02
2022-10-05T21:07:08.503Z,5.78
2022-10-05T21:09:37.895Z,4.70
2022-10-05T21:12:04.751Z,6.13
2022-10-05T21:14:34.137Z,5.63
2022-10-05T21:17:01.923Z,5.85
2022-10-05T21:19:29.893Z,6.03
2022-10-05T21:21:59.257Z,6.25
2022-10-05T21:24:25.910Z,5.45
2022-10-05T21:31:12.111Z,8.32
2022-10-05T21:33:38.694Z,5.93
2022-10-05T21:36:05.381Z,5.95
2022-10-05T21:38:31.974Z,6.15
2022-10-05T21:40:58.651Z,4.65
2022-10-05T21:43:25.669Z,6.55
2022-10-05T21:45:54.706Z,5.53
2022-10-05T21:48:22.288Z,6.05
2022-10-05T21:50:48.781Z,6.45
2022-10-05T21:53:18.380Z,4.72
2022-10-05T21:55:48.884Z,4.35
2022-10-05T21:58:17.147Z,6.03
2022-10-05T22:00:43.724Z,5.45
2022-10-05T22:03:10.590Z,4.43
2022-10-05T22:05:37.117Z,5.43
2022-10-05T22:08:04.365Z,5.20
2022-10-05T22:10:32.234Z,4.95
2022-10-05T22:13:03.705Z,6.97
2022-10-05T22:15:31.396Z,6.40
2022-10-05T22:17:59.678Z,5.38
2022-10-05T22:20:26.874Z,6.20
2022-10-05T22:22:53.970Z,6.05
2022-10-05T22:25:21.558Z,7.50
2022-10-05T22:27:49.671Z,5.20
2022-10-05T22:30:16.439Z,6.40
2022-10-05T22:32:43.911Z,4.95
2022-10-05T22:35:11.725Z,7.50
2022-10-05T22:37:38.678Z,4.47
2022-10-05T22:40:07.512Z,5.05
2022-10-05T22:42:34.638Z,7.20
2022-10-05T22:45:01.200Z,4.47
2022-10-05T22:47:27.764Z,4.68
2022-10-05T22:49:55.126Z,4.80
2022-10-05T22:52:21.590Z,5.15
2022-10-05T22:54:48.222Z,6.35
2022-10-05T22:57:14.959Z,5.90
2022-10-05T22:59:41.851Z,5.00
2022-10-05T23:02:08.421Z,5.18
2022-10-05T23:04:34.911Z,5.15
2022-10-05T23:07:01.575Z,6.30
2022-10-05T23:09:28.070Z,5.32
2022-10-05T23:11:54.560Z,6.43
2022-10-05T23:14:21.259Z,6.72
2022-10-05T23:16:47.952Z,6.10
2022-10-05T23:19:14.511Z,5.43
2022-10-05T23:21:41.376Z,6.93
2022-10-05T23:24:08.380Z,5.40
2022-10-05T23:26:34.966Z,8.07
2022-10-05T23:29:01.515Z,6.35
2022-10-05T23:31:30.756Z,6.13
2022-10-05T23:33:57.253Z,5.45
2022-10-05T23:36:32.173Z,4.85
2022-10-05T23:38:59.962Z,5.20
2022-10-05T23:41:26.973Z,5.88
2022-10-05T23:43:55.152Z,4.30
2022-10-05T23:46:22.135Z,4.95
2022-10-05T23:48:50.323Z,5.45
2022-10-05T23:51:17.566Z,6.18
2022-10-05T23:53:44.517Z,6.93
